createdAt,value
2023-07-18T00:00:59.012Z,1007.47
2023-07-18T00:01:58.995Z,1007.45
2023-07-18T00:02:58.981Z,1007.47
2023-07-18T00:03:58.944Z,1007.44
2023-07-18T00:04:58.875Z,1007.45
2023-07-18T00:05:58.858Z,1007.44
2023-07-18T00:06:58.846Z,1007.38
2023-07-18T00:07:58.848Z,1007.40
2023-07-18T00:08:58.844Z,1007.43
2023-07-18T00:09:59.352Z,1007.45
2023-07-18T00:10:58.785Z,1007.44
2023-07-18T00:11:58.798Z,1007.43
2023-07-18T00:12:58.799Z,1007.41
2023-07-18T00:13:58.771Z,1007.42
2023-07-18T00:14:58.757Z,1007.43
2023-07-18T00:15:58.770Z,1007.45
2023-07-18T00:16:58.712Z,1007.43
2023-07-18T00:17:58.798Z,1007.40
2023-07-18T00:18:58.674Z,1007.38
2023-07-18T00:19:58.677Z,1007.35
2023-07-18T00:20:58.665Z,1007.33
2023-07-18T00:21:58.703Z,1007.29
2023-07-18T00:22:58.779Z,1007.27
2023-07-18T00:23:58.616Z,1007.24
2023-07-18T00:24:58.703Z,1007.31
2023-07-18T00:25:58.621Z,1007.29
2023-07-18T00:26:58.611Z,1007.31
2023-07-18T00:27:58.596Z,1007.32
2023-07-18T00:28:58.582Z,1007.31
2023-07-18T00:29:58.549Z,1007.32
2023-07-18T00:30:58.519Z,1007.35
2023-07-18T00:31:58.562Z,1007.33
2023-07-18T00:32:58.570Z,1007.34
2023-07-18T00:33:58.478Z,1007.34
2023-07-18T00:34:58.477Z,1007.36
2023-07-18T00:35:58.465Z,1007.36
2023-07-18T00:36:58.484Z,1007.33
2023-07-18T00:37:58.471Z,1007.30
2023-07-18T00:38:58.446Z,1007.30
2023-07-18T00:39:58.417Z,1007.32
2023-07-18T00:40:58.396Z,1007.31
2023-07-18T00:41:58.393Z,1007.33
2023-07-18T00:42:58.368Z,1007.30
2023-07-18T00:43:58.352Z,1007.28
2023-07-18T00:44:58.353Z,1007.27
2023-07-18T00:45:58.362Z,1007.26
2023-07-18T00:46:58.325Z,1007.25
2023-07-18T00:47:58.432Z,1007.23
2023-07-18T00:48:58.304Z,1007.25
2023-07-18T00:49:58.276Z,1007.25
2023-07-18T00:50:58.281Z,1007.25
2023-07-18T00:51:58.242Z,1007.24
2023-07-18T00:52:58.238Z,1007.25
2023-07-18T00:53:58.216Z,1007.25
2023-07-18T00:54:58.235Z,1007.25
2023-07-18T00:55:58.216Z,1007.27
2023-07-18T00:56:58.221Z,1007.28
2023-07-18T00:57:58.201Z,1007.26
2023-07-18T00:58:58.168Z,1007.26
2023-07-18T00:59:58.165Z,1007.25
2023-07-18T01:00:58.207Z,1007.29
2023-07-18T01:01:58.118Z,1007.27
2023-07-18T01:02:58.208Z,1007.29
2023-07-18T01:03:58.091Z,1007.29
2023-07-18T01:04:58.114Z,1007.29
2023-07-18T01:05:58.057Z,1007.29
2023-07-18T01:06:58.121Z,1007.29
2023-07-18T01:07:58.024Z,1007.27
2023-07-18T01:08:58.031Z,1007.29
2023-07-18T01:09:58.028Z,1007.27
2023-07-18T01:10:57.993Z,1007.27
2023-07-18T01:11:57.997Z,1007.25
2023-07-18T01:12:57.973Z,1007.24
2023-07-18T01:13:57.969Z,1007.23
2023-07-18T01:14:57.975Z,1007.24
2023-07-18T01:15:57.967Z,1007.26
2023-07-18T01:16:57.909Z,1007.23
2023-07-18T01:17:57.944Z,1007.26
2023-07-18T01:18:57.906Z,1007.21
2023-07-18T01:19:57.874Z,1007.20
2023-07-18T01:20:57.859Z,1007.19
2023-07-18T02:39:37.094Z,1007.12
2023-07-18T02:40:37.064Z,1007.11
2023-07-18T02:41:37.035Z,1007.13
2023-07-18T02:42:37.012Z,1007.12
2023-07-18T02:43:37.048Z,1007.12
2023-07-18T02:44:37.010Z,1007.09
2023-07-18T02:45:36.966Z,1007.09
2023-07-18T02:46:37.012Z,1007.10
2023-07-18T02:47:37.058Z,1007.10
2023-07-18T02:48:36.945Z,1007.07
2023-07-18T02:49:36.950Z,1007.06
2023-07-18T02:50:36.955Z,1007.07
2023-07-18T02:51:36.911Z,1007.09
2023-07-18T02:52:36.912Z,1007.10
2023-07-18T02:53:36.893Z,1007.06
2023-07-18T02:54:36.874Z,1007.06
2023-07-18T02:55:36.838Z,1007.05
2023-07-18T02:56:36.830Z,1007.08
2023-07-18T02:57:37.058Z,1007.07
2023-07-18T02:58:36.830Z,1007.10
2023-07-18T02:59:36.805Z,1007.09
2023-07-18T03:00:36.784Z,1007.10
2023-07-18T03:01:36.780Z,1007.15
2023-07-18T03:02:36.803Z,1007.19
2023-07-18T03:03:36.846Z,1007.19
2023-07-18T03:04:36.720Z,1007.24
2023-07-18T03:05:36.716Z,1007.26
2023-07-18T03:06:36.705Z,1007.29
2023-07-18T03:07:36.714Z,1007.29
2023-07-18T03:08:36.680Z,1007.31
2023-07-18T03:09:36.670Z,1007.33
2023-07-18T03:10:36.681Z,1007.33
2023-07-18T03:11:36.633Z,1007.31
2023-07-18T03:12:36.645Z,1007.32
2023-07-18T03:13:36.617Z,1007.32
2023-07-18T03:14:36.589Z,1007.33
2023-07-18T03:15:36.582Z,1007.36
2023-07-18T03:16:36.617Z,1007.36
2023-07-18T03:17:36.590Z,1007.36
2023-07-18T03:18:36.534Z,1007.29
2023-07-18T03:19:36.540Z,1007.33
2023-07-18T03:20:36.512Z,1007.29
2023-07-18T03:21:36.505Z,1007.30
2023-07-18T03:22:36.527Z,1007.30
2023-07-18T03:23:36.465Z,1007.30
2023-07-18T03:24:36.710Z,1007.29
2023-07-18T03:25:36.465Z,1007.26
2023-07-18T03:26:36.443Z,1007.26
2023-07-18T03:27:36.438Z,1007.28
2023-07-18T03:28:36.431Z,1007.27
2023-07-18T03:29:36.418Z,1007.30
2023-07-18T03:30:36.415Z,1007.30
2023-07-18T03:31:36.420Z,1007.31
2023-07-18T03:32:36.372Z,1007.25
2023-07-18T03:33:36.338Z,1007.23
2023-07-18T03:34:36.361Z,1007.20
2023-07-18T03:35:36.350Z,1007.19
2023-07-18T03:36:38.255Z,1007.19
2023-07-18T03:37:36.314Z,1007.22
2023-07-18T03:38:36.278Z,1007.18
2023-07-18T03:39:36.268Z,1007.21
2023-07-18T03:40:36.272Z,1007.19
2023-07-18T03:41:36.236Z,1007.17
2023-07-18T03:42:36.220Z,1007.16
2023-07-18T03:43:36.207Z,1007.15
2023-07-18T03:44:36.206Z,1007.15
2023-07-18T03:45:36.213Z,1007.13
2023-07-18T03:46:36.192Z,1007.15
2023-07-18T03:47:36.215Z,1007.13
2023-07-18T03:48:36.178Z,1007.13
2023-07-18T03:49:36.149Z,1007.11
2023-07-18T03:50:36.134Z,1007.15
2023-07-18T03:51:37.865Z,1007.13
2023-07-18T03:52:36.085Z,1007.14
2023-07-18T03:53:36.075Z,1007.18
2023-07-18T03:54:36.074Z,1007.15
2023-07-18T03:55:36.049Z,1007.09
2023-07-18T03:56:36.033Z,1007.17
2023-07-18T03:57:36.049Z,1007.14
2023-07-18T03:58:36.022Z,1007.17
2023-07-18T03:59:35.996Z,1007.18
2023-07-18T04:00:35.994Z,1007.20
2023-07-18T04:01:35.989Z,1007.20
2023-07-18T04:02:35.980Z,1007.20
2023-07-18T04:03:35.989Z,1007.23
2023-07-18T04:04:35.959Z,1007.18
2023-07-18T04:05:35.918Z,1007.18
2023-07-18T04:06:35.914Z,1007.17
2023-07-18T04:07:35.898Z,1007.11
2023-07-18T04:08:35.909Z,1007.10
2023-07-18T04:09:35.864Z,1007.09
2023-07-18T04:10:35.860Z,1007.12
2023-07-18T04:11:35.843Z,1007.12
2023-07-18T04:12:35.860Z,1007.13
2023-07-18T04:13:35.833Z,1007.14
2023-07-18T04:14:35.800Z,1007.11
2023-07-18T04:15:42.866Z,1007.10
2023-07-18T04:16:35.884Z,1007.11
2023-07-18T04:17:35.816Z,1007.11
2023-07-18T04:18:35.782Z,1007.09
2023-07-18T04:19:35.739Z,1007.09
2023-07-18T04:20:35.717Z,1007.08
2023-07-18T04:21:35.722Z,1007.08
2023-07-18T04:22:35.779Z,1007.09
2023-07-18T04:23:35.681Z,1007.10
2023-07-18T04:24:35.666Z,1007.11
2023-07-18T04:25:35.692Z,1007.06
2023-07-18T04:26:35.662Z,1007.11
2023-07-18T04:27:35.675Z,1007.09
2023-07-18T04:28:35.700Z,1007.08
2023-07-18T04:29:35.604Z,1007.11
2023-07-18T04:30:35.604Z,1007.13
2023-07-18T04:31:35.634Z,1007.11
2023-07-18T04:32:35.603Z,1007.12
2023-07-18T04:33:35.567Z,1007.12
2023-07-18T04:34:35.550Z,1007.11
2023-07-18T04:35:35.524Z,1007.12
2023-07-18T04:36:35.564Z,1007.12
2023-07-18T04:37:35.520Z,1007.07
2023-07-18T04:38:35.486Z,1007.10
2023-07-18T04:39:35.479Z,1007.11
2023-07-18T04:40:35.506Z,1007.15
2023-07-18T04:41:45.503Z,1007.12
2023-07-18T04:42:36.441Z,1007.14
2023-07-18T04:43:35.420Z,1007.11
2023-07-18T04:44:35.434Z,1007.13
2023-07-18T04:45:35.410Z,1007.14
2023-07-18T04:46:35.531Z,1007.14
2023-07-18T04:47:35.476Z,1007.13
2023-07-18T04:48:35.350Z,1007.13
2023-07-18T04:49:35.375Z,1007.14
2023-07-18T04:50:35.339Z,1007.12
2023-07-18T04:51:35.322Z,1007.09
2023-07-18T04:52:35.303Z,1007.06
2023-07-18T04:53:35.296Z,1007.05
2023-07-18T04:54:35.283Z,1007.09
2023-07-18T04:55:35.285Z,1007.12
2023-07-18T04:56:35.247Z,1007.12
2023-07-18T04:57:35.252Z,1007.09
2023-07-18T04:58:35.224Z,1007.09
2023-07-18T04:59:35.791Z,1007.09
2023-07-18T05:00:35.271Z,1007.08
2023-07-18T05:01:35.245Z,1007.04
2023-07-18T05:02:35.218Z,1007.00
2023-07-18T05:03:44.288Z,1007.01
2023-07-18T05:04:36.196Z,1007.00
2023-07-18T05:05:35.135Z,1007.02
2023-07-18T05:06:35.107Z,1007.04
2023-07-18T05:07:35.105Z,1007.06
2023-07-18T05:08:35.111Z,1007.04
2023-07-18T05:09:35.164Z,1007.06
2023-07-18T05:10:35.052Z,1007.02
2023-07-18T05:11:35.666Z,1007.00
2023-07-18T05:12:35.033Z,1007.01
2023-07-18T05:13:35.058Z,1006.98
2023-07-18T05:14:35.034Z,1007.03
2023-07-18T05:15:35.079Z,1007.05
2023-07-18T05:16:35.013Z,1007.04
2023-07-18T05:17:35.042Z,1007.01
2023-07-18T05:18:34.981Z,1007.01
2023-07-18T05:19:34.952Z,1006.94
2023-07-18T05:20:34.934Z,1006.91
2023-07-18T05:21:34.948Z,1006.90
2023-07-18T05:22:34.908Z,1006.90
2023-07-18T05:23:34.932Z,1006.93
2023-07-18T05:24:34.882Z,1006.86
2023-07-18T05:25:35.833Z,1006.88
2023-07-18T05:26:34.856Z,1006.88
2023-07-18T05:27:34.871Z,1006.86
2023-07-18T05:28:34.831Z,1006.87
2023-07-18T05:29:34.888Z,1006.88
2023-07-18T05:30:34.809Z,1006.88
2023-07-18T05:31:34.872Z,1006.86
2023-07-18T05:32:34.830Z,1006.86
2023-07-18T05:33:34.767Z,1006.84
2023-07-18T05:34:34.757Z,1006.83
2023-07-18T05:35:34.757Z,1006.84
2023-07-18T05:36:34.723Z,1006.88
2023-07-18T05:37:34.789Z,1006.87
2023-07-18T05:38:34.687Z,1006.88
2023-07-18T05:39:34.689Z,1006.90
2023-07-18T05:40:34.661Z,1006.89
2023-07-18T05:41:34.687Z,1006.89
2023-07-18T05:42:34.674Z,1006.86
2023-07-18T05:43:34.647Z,1006.88
2023-07-18T05:44:34.641Z,1006.88
2023-07-18T05:45:34.631Z,1006.89
2023-07-18T05:46:34.611Z,1006.93
2023-07-18T05:47:34.637Z,1006.91
2023-07-18T05:48:34.571Z,1006.91
2023-07-18T05:49:34.566Z,1006.91
2023-07-18T05:50:34.538Z,1006.93
2023-07-18T05:51:34.550Z,1006.91
2023-07-18T05:52:34.555Z,1006.89
2023-07-18T05:53:34.488Z,1006.88
2023-07-18T05:54:35.868Z,1006.83
2023-07-18T05:55:34.478Z,1006.84
2023-07-18T05:56:34.484Z,1006.83
2023-07-18T05:57:34.493Z,1006.83
2023-07-18T05:58:34.443Z,1006.84
2023-07-18T05:59:34.408Z,1006.82
2023-07-18T06:00:34.402Z,1006.78
2023-07-18T06:01:34.474Z,1006.74
2023-07-18T06:02:34.477Z,1006.76
2023-07-18T06:03:34.457Z,1006.72
2023-07-18T06:04:34.356Z,1006.70
2023-07-18T06:05:34.359Z,1006.72
2023-07-18T06:06:34.339Z,1006.74
2023-07-18T06:07:34.338Z,1006.73
2023-07-18T06:08:34.331Z,1006.74
2023-07-18T06:09:34.295Z,1006.73
2023-07-18T06:10:34.294Z,1006.70
2023-07-18T06:11:34.290Z,1006.72
2023-07-18T06:12:34.256Z,1006.70
2023-07-18T06:13:34.244Z,1006.65
2023-07-18T06:14:34.224Z,1006.66
2023-07-18T06:15:34.225Z,1006.66
2023-07-18T06:16:34.220Z,1006.64
2023-07-18T06:17:34.263Z,1006.61
2023-07-18T06:18:34.175Z,1006.59
2023-07-18T06:19:34.173Z,1006.57
2023-07-18T06:20:34.176Z,1006.54
2023-07-18T06:21:34.118Z,1006.56
2023-07-18T06:22:34.135Z,1006.51
2023-07-18T06:23:34.158Z,1006.49
2023-07-18T06:24:34.130Z,1006.51
2023-07-18T06:25:34.093Z,1006.50
2023-07-18T06:26:34.091Z,1006.47
2023-07-18T06:27:34.050Z,1006.45
2023-07-18T06:28:34.033Z,1006.48
2023-07-18T06:29:34.056Z,1006.48
2023-07-18T06:30:34.026Z,1006.46
2023-07-18T06:31:34.100Z,1006.42
2023-07-18T06:32:34.031Z,1006.48
2023-07-18T06:33:33.968Z,1006.41
2023-07-18T06:34:33.972Z,1006.41
2023-07-18T06:35:33.966Z,1006.38
2023-07-18T06:36:34.025Z,1006.39
2023-07-18T06:37:33.920Z,1006.35
2023-07-18T06:38:33.905Z,1006.32
2023-07-18T06:39:33.908Z,1006.31
2023-07-18T06:40:33.868Z,1006.33
2023-07-18T06:41:33.863Z,1006.30
2023-07-18T06:42:33.857Z,1006.29
2023-07-18T06:43:33.840Z,1006.28
2023-07-18T06:44:33.861Z,1006.25
2023-07-18T06:45:33.828Z,1006.28
2023-07-18T06:46:33.843Z,1006.32
2023-07-18T06:47:33.857Z,1006.33
2023-07-18T06:48:33.760Z,1006.36
2023-07-18T06:49:33.774Z,1006.28
2023-07-18T06:50:33.743Z,1006.27
2023-07-18T06:51:33.727Z,1006.27
2023-07-18T06:52:36.419Z,1006.31
2023-07-18T06:53:33.718Z,1006.28
2023-07-18T06:54:33.726Z,1006.28
2023-07-18T06:55:33.672Z,1006.24
2023-07-18T06:56:33.667Z,1006.24
2023-07-18T06:57:33.648Z,1006.23
2023-07-18T06:58:33.651Z,1006.21
2023-07-18T06:59:33.633Z,1006.18
2023-07-18T07:00:33.603Z,1006.17
2023-07-18T07:01:33.667Z,1006.17
2023-07-18T07:02:33.597Z,1006.16
2023-07-18T07:03:33.705Z,1006.17
2023-07-18T07:04:33.553Z,1006.12
2023-07-18T07:05:33.534Z,1006.15
2023-07-18T07:06:33.550Z,1006.12
2023-07-18T07:07:33.646Z,1006.13
2023-07-18T07:08:33.519Z,1006.12
2023-07-18T07:09:33.495Z,1006.07
2023-07-18T07:10:33.476Z,1006.09
2023-07-18T07:11:33.470Z,1006.09
2023-07-18T07:12:36.715Z,1006.11
2023-07-18T07:13:33.426Z,1006.10
2023-07-18T07:14:33.425Z,1006.10
2023-07-18T07:15:33.415Z,1006.06
2023-07-18T07:16:33.404Z,1006.07
2023-07-18T07:17:33.453Z,1006.08
2023-07-18T07:18:33.365Z,1006.07
2023-07-18T07:19:33.372Z,1006.08
2023-07-18T07:20:33.344Z,1006.06
2023-07-18T07:21:33.335Z,1006.08
2023-07-18T07:22:33.339Z,1006.11
2023-07-18T07:23:33.300Z,1006.09
2023-07-18T07:24:33.277Z,1006.09
2023-07-18T07:25:33.248Z,1006.09
2023-07-18T07:26:33.286Z,1006.10
2023-07-18T07:27:33.289Z,1006.05
2023-07-18T07:28:33.267Z,1006.04
2023-07-18T07:29:33.219Z,1006.02
2023-07-18T07:30:33.231Z,1006.02
2023-07-18T07:31:33.281Z,1005.98
2023-07-18T07:32:33.205Z,1005.99
2023-07-18T07:33:33.153Z,1006.00
2023-07-18T07:34:35.122Z,1005.99
2023-07-18T07:35:33.121Z,1005.99
2023-07-18T07:36:33.142Z,1006.02
2023-07-18T07:37:33.139Z,1005.99
2023-07-18T07:38:33.126Z,1006.05
2023-07-18T07:39:33.081Z,1006.02
2023-07-18T07:40:33.064Z,1006.01
2023-07-18T07:41:33.076Z,1005.96
2023-07-18T07:42:33.038Z,1005.98
2023-07-18T07:43:33.038Z,1005.99
2023-07-18T07:44:33.019Z,1005.98
2023-07-18T07:45:33.006Z,1005.99
2023-07-18T07:46:33.086Z,1005.97
2023-07-18T07:47:33.168Z,1005.93
2023-07-18T07:48:32.993Z,1005.95
2023-07-18T07:49:32.969Z,1005.89
2023-07-18T07:50:32.963Z,1005.86
2023-07-18T07:51:33.020Z,1005.87
2023-07-18T07:52:32.910Z,1005.82
2023-07-18T07:53:32.909Z,1005.84
2023-07-18T07:54:32.898Z,1005.85
2023-07-18T07:55:32.908Z,1005.84
2023-07-18T07:56:32.864Z,1005.88
2023-07-18T07:57:33.082Z,1005.88
2023-07-18T07:58:32.829Z,1005.85
2023-07-18T07:59:32.821Z,1005.84
2023-07-18T08:00:32.841Z,1005.84
2023-07-18T08:01:32.818Z,1005.82
2023-07-18T08:02:32.814Z,1005.76
2023-07-18T08:03:32.788Z,1005.75
2023-07-18T08:04:32.877Z,1005.72
2023-07-18T08:05:32.869Z,1005.69
2023-07-18T08:06:32.722Z,1005.67
2023-07-18T08:07:32.832Z,1005.70
2023-07-18T08:08:32.719Z,1005.70
2023-07-18T08:09:32.712Z,1005.70
2023-07-18T08:10:32.702Z,1005.69
2023-07-18T08:11:32.668Z,1005.70
2023-07-18T08:12:32.651Z,1005.70
2023-07-18T08:13:32.633Z,1005.70
2023-07-18T08:14:32.659Z,1005.68
2023-07-18T08:15:32.614Z,1005.65
2023-07-18T08:16:32.720Z,1005.62
2023-07-18T08:17:32.634Z,1005.58
2023-07-18T08:18:32.600Z,1005.54
2023-07-18T08:19:32.623Z,1005.52
2023-07-18T08:20:32.624Z,1005.50
2023-07-18T08:21:32.532Z,1005.48
2023-07-18T08:22:32.586Z,1005.48
2023-07-18T08:23:32.501Z,1005.53
2023-07-18T08:24:32.532Z,1005.48
2023-07-18T08:25:32.821Z,1005.49
2023-07-18T08:26:32.539Z,1005.48
2023-07-18T08:27:32.459Z,1005.47
2023-07-18T08:28:32.462Z,1005.41
2023-07-18T08:29:32.498Z,1005.39
2023-07-18T08:30:32.424Z,1005.38
2023-07-18T08:31:32.466Z,1005.37
2023-07-18T08:32:32.485Z,1005.36
2023-07-18T08:33:32.390Z,1005.36
2023-07-18T08:34:32.407Z,1005.35
2023-07-18T08:35:32.351Z,1005.34
2023-07-18T08:36:32.399Z,1005.37
2023-07-18T08:37:32.323Z,1005.37
2023-07-18T08:38:32.333Z,1005.34
2023-07-18T08:39:32.291Z,1005.38
2023-07-18T08:40:32.290Z,1005.34
2023-07-18T08:41:32.269Z,1005.37
2023-07-18T08:42:32.271Z,1005.32
2023-07-18T08:43:32.263Z,1005.32
2023-07-18T08:44:32.238Z,1005.31
2023-07-18T08:45:32.218Z,1005.32
2023-07-18T08:46:32.328Z,1005.31
2023-07-18T08:47:32.201Z,1005.28
2023-07-18T08:48:32.193Z,1005.26
2023-07-18T08:49:34.483Z,1005.24
2023-07-18T08:50:32.150Z,1005.23
2023-07-18T08:51:32.130Z,1005.25
2023-07-18T08:52:32.155Z,1005.27
2023-07-18T08:53:32.121Z,1005.26
2023-07-18T08:54:32.092Z,1005.25
2023-07-18T08:55:32.094Z,1005.25
2023-07-18T08:56:32.068Z,1005.17
2023-07-18T08:57:32.072Z,1005.21
2023-07-18T08:58:32.078Z,1005.16
2023-07-18T08:59:32.027Z,1005.10
2023-07-18T09:00:32.014Z,1005.10
2023-07-18T09:01:32.031Z,1005.11
2023-07-18T09:02:32.039Z,1005.06
2023-07-18T09:03:32.033Z,1005.08
2023-07-18T09:04:31.971Z,1005.05
2023-07-18T09:05:31.965Z,1005.06
2023-07-18T09:06:31.976Z,1005.02
2023-07-18T09:07:31.933Z,1004.99
2023-07-18T09:08:31.899Z,1004.98
2023-07-18T09:09:31.891Z,1005.01
2023-07-18T09:10:31.896Z,1005.00
2023-07-18T09:11:31.873Z,1004.97
2023-07-18T09:12:31.878Z,1004.94
2023-07-18T09:13:31.847Z,1004.94
2023-07-18T09:14:31.837Z,1004.87
2023-07-18T09:15:31.831Z,1004.81
2023-07-18T09:16:31.840Z,1004.77
2023-07-18T09:17:31.813Z,1004.72
2023-07-18T09:18:31.773Z,1004.67
2023-07-18T09:19:31.767Z,1004.65
2023-07-18T09:20:31.755Z,1004.63
2023-07-18T09:21:31.818Z,1004.58
2023-07-18T09:22:31.752Z,1004.54
2023-07-18T09:23:31.704Z,1004.54
2023-07-18T09:24:31.701Z,1004.54
2023-07-18T09:25:31.719Z,1004.48
2023-07-18T09:26:33.508Z,1004.47
2023-07-18T09:27:31.654Z,1004.41
2023-07-18T09:28:31.632Z,1004.38
2023-07-18T09:29:31.625Z,1004.35
2023-07-18T09:30:31.643Z,1004.35
2023-07-18T09:31:31.627Z,1004.40
2023-07-18T09:32:31.579Z,1004.37
2023-07-18T09:33:31.574Z,1004.36
2023-07-18T09:34:31.568Z,1004.36
2023-07-18T09:35:31.588Z,1004.31
2023-07-18T09:36:31.926Z,1004.23
2023-07-18T09:37:31.515Z,1004.28
2023-07-18T09:38:31.509Z,1004.26
2023-07-18T09:39:31.488Z,1004.28
2023-07-18T09:40:31.549Z,1004.22
2023-07-18T09:41:31.465Z,1004.28
2023-07-18T09:43:31.756Z,1004.28
2023-07-18T09:44:34.006Z,1004.28
2023-07-18T09:45:31.417Z,1004.27
2023-07-18T09:46:31.412Z,1004.29
2023-07-18T09:47:32.543Z,1004.26
2023-07-18T09:48:44.580Z,1004.24
2023-07-18T09:49:34.121Z,1004.19
2023-07-18T09:50:31.348Z,1004.22
2023-07-18T09:51:31.369Z,1004.15
2023-07-18T09:52:31.326Z,1004.17
2023-07-18T09:53:31.313Z,1004.15
2023-07-18T09:54:31.320Z,1004.18
2023-07-18T09:55:31.270Z,1004.21
2023-07-18T09:56:31.270Z,1004.24
2023-07-18T09:57:31.289Z,1004.26
2023-07-18T09:58:31.262Z,1004.26
2023-07-18T09:59:31.254Z,1004.27
2023-07-18T10:00:31.230Z,1004.30
2023-07-18T10:01:31.205Z,1004.30
2023-07-18T10:02:31.231Z,1004.29
2023-07-18T10:03:31.250Z,1004.29
2023-07-18T10:04:31.183Z,1004.28
2023-07-18T10:05:31.192Z,1004.23
2023-07-18T10:06:31.131Z,1004.24
2023-07-18T10:07:31.112Z,1004.23
2023-07-18T10:08:31.129Z,1004.22
2023-07-18T10:09:31.117Z,1004.24
2023-07-18T10:10:31.111Z,1004.24
2023-07-18T10:11:31.064Z,1004.25
2023-07-18T10:12:31.058Z,1004.30
2023-07-18T10:13:31.083Z,1004.25
2023-07-18T10:14:31.068Z,1004.29
2023-07-18T10:15:31.007Z,1004.30
2023-07-18T10:16:31.164Z,1004.31
2023-07-18T10:17:31.245Z,1004.33
2023-07-18T10:18:31.042Z,1004.37
2023-07-18T10:19:30.961Z,1004.37
2023-07-18T10:20:30.970Z,1004.40
2023-07-18T10:21:30.948Z,1004.39
2023-07-18T10:22:31.072Z,1004.43
2023-07-18T10:23:30.946Z,1004.40
2023-07-18T10:24:30.900Z,1004.39
2023-07-18T10:25:31.165Z,1004.37
2023-07-18T10:26:30.920Z,1004.40
2023-07-18T10:27:30.904Z,1004.41
2023-07-18T10:28:30.881Z,1004.46
2023-07-18T10:29:30.847Z,1004.52
2023-07-18T10:30:30.859Z,1004.52
2023-07-18T10:31:30.917Z,1004.55
2023-07-18T10:32:30.858Z,1004.51
2023-07-18T10:33:30.819Z,1004.49
2023-07-18T10:34:30.790Z,1004.51
2023-07-18T10:35:30.781Z,1004.55
2023-07-18T10:36:30.743Z,1004.58
2023-07-18T10:37:30.763Z,1004.57
2023-07-18T10:38:30.796Z,1004.56
2023-07-18T10:39:30.735Z,1004.60
2023-07-18T10:40:30.704Z,1004.59
2023-07-18T10:41:30.672Z,1004.57
2023-07-18T10:42:30.742Z,1004.55
2023-07-18T10:43:30.687Z,1004.53
2023-07-18T10:44:30.654Z,1004.56
2023-07-18T10:45:30.709Z,1004.54
2023-07-18T10:46:30.718Z,1004.57
2023-07-18T10:47:30.769Z,1004.48
2023-07-18T10:48:30.612Z,1004.44
2023-07-18T10:49:30.564Z,1004.38
2023-07-18T10:50:30.557Z,1004.26
2023-07-18T10:51:30.550Z,1004.05
2023-07-18T10:52:30.557Z,1003.91
2023-07-18T10:53:30.587Z,1003.76
2023-07-18T10:54:30.560Z,1003.66
2023-07-18T10:55:30.521Z,1003.63
2023-07-18T10:56:30.540Z,1003.68
2023-07-18T10:57:30.473Z,1003.67
2023-07-18T10:58:30.457Z,1003.61
2023-07-18T10:59:30.436Z,1003.53
2023-07-18T11:00:30.505Z,1003.42
2023-07-18T11:01:30.444Z,1003.40
2023-07-18T11:02:30.458Z,1003.42
2023-07-18T11:03:30.436Z,1003.39
2023-07-18T11:04:30.453Z,1003.37
2023-07-18T11:05:30.387Z,1003.44
2023-07-18T11:06:30.368Z,1003.47
2023-07-18T11:07:30.350Z,1003.53
2023-07-18T11:08:30.320Z,1003.50
2023-07-18T11:09:30.322Z,1003.52
2023-07-18T11:10:30.330Z,1003.48
2023-07-18T11:11:30.288Z,1003.48
2023-07-18T11:12:30.297Z,1003.48
2023-07-18T11:13:30.268Z,1003.50
2023-07-18T11:14:30.267Z,1003.52
2023-07-18T11:15:30.263Z,1003.54
2023-07-18T11:16:30.291Z,1003.56
2023-07-18T11:17:30.238Z,1003.51
2023-07-18T11:18:30.200Z,1003.49
2023-07-18T11:19:30.193Z,1003.44
2023-07-18T11:20:30.162Z,1003.29
2023-07-18T11:21:30.145Z,1003.19
2023-07-18T11:22:30.171Z,1003.10
2023-07-18T11:23:30.204Z,1003.03
2023-07-18T11:24:30.156Z,1002.98
2023-07-18T11:25:30.094Z,1002.95
2023-07-18T11:26:31.528Z,1002.87
2023-07-18T11:27:30.078Z,1002.88
2023-07-18T11:28:30.049Z,1002.90
2023-07-18T11:29:30.060Z,1002.99
2023-07-18T11:30:30.034Z,1003.04
2023-07-18T11:31:40.874Z,1003.15
2023-07-18T11:32:33.592Z,1003.19
2023-07-18T11:33:30.044Z,1003.24
2023-07-18T11:34:30.040Z,1003.31
2023-07-18T11:35:29.997Z,1003.30
2023-07-18T11:36:29.985Z,1003.39
2023-07-18T11:37:33.621Z,1003.39
2023-07-18T11:38:30.951Z,1003.39
2023-07-18T11:39:29.910Z,1003.41
2023-07-18T11:40:29.915Z,1003.43
2023-07-18T11:41:29.880Z,1003.41
2023-07-18T11:42:29.876Z,1003.41
2023-07-18T11:43:29.921Z,1003.48
2023-07-18T11:44:29.873Z,1003.48
2023-07-18T11:45:29.861Z,1003.48
2023-07-18T11:46:29.833Z,1003.46
2023-07-18T11:47:31.833Z,1003.47
2023-07-18T11:48:29.958Z,1003.46
2023-07-18T11:49:29.783Z,1003.45
2023-07-18T11:50:30.410Z,1003.43
2023-07-18T11:51:30.154Z,1003.44
2023-07-18T11:52:30.741Z,1003.42
2023-07-18T11:53:29.778Z,1003.35
2023-07-18T11:54:29.740Z,1003.27
2023-07-18T11:55:29.710Z,1003.21
2023-07-18T11:56:29.842Z,1003.17
2023-07-18T11:57:29.720Z,1003.19
2023-07-18T11:58:29.846Z,1003.15
2023-07-18T11:59:29.832Z,1003.09
2023-07-18T12:00:29.857Z,1003.05
2023-07-18T12:01:29.861Z,1002.95
2023-07-18T12:02:30.056Z,1002.98
2023-07-18T12:03:29.971Z,1002.95
2023-07-18T12:04:30.131Z,1002.93
2023-07-18T12:05:29.886Z,1002.90
2023-07-18T12:06:29.689Z,1002.89
2023-07-18T12:07:29.553Z,1002.87
2023-07-18T12:08:29.809Z,1002.80
2023-07-18T12:09:29.808Z,1002.81
2023-07-18T12:10:29.696Z,1002.84
2023-07-18T12:11:29.506Z,1002.85
2023-07-18T12:12:29.484Z,1002.91
2023-07-18T12:13:29.616Z,1002.88
2023-07-18T12:14:30.118Z,1002.81
2023-07-18T12:15:29.678Z,1002.77
2023-07-18T12:16:29.915Z,1002.78
2023-07-18T12:17:29.529Z,1002.78
2023-07-18T12:18:29.663Z,1002.74
2023-07-18T12:19:29.473Z,1002.67
2023-07-18T12:20:29.469Z,1002.63
2023-07-18T12:21:29.528Z,1002.58
2023-07-18T12:22:33.606Z,1002.58
2023-07-18T12:23:29.334Z,1002.54
2023-07-18T12:24:29.573Z,1002.47
2023-07-18T12:25:29.312Z,1002.43
2023-07-18T12:26:29.815Z,1002.42
2023-07-18T12:27:29.537Z,1002.35
2023-07-18T12:28:29.571Z,1002.34
2023-07-18T12:29:29.281Z,1002.34
2023-07-18T12:30:29.927Z,1002.34
2023-07-18T12:31:29.490Z,1002.28
2023-07-18T12:32:32.067Z,1002.27
2023-07-18T12:33:29.343Z,1002.30
2023-07-18T12:34:29.402Z,1002.23
2023-07-18T12:35:29.357Z,1002.24
2023-07-18T12:36:29.246Z,1002.24
2023-07-18T12:37:29.237Z,1002.16
2023-07-18T12:38:30.154Z,1002.10
2023-07-18T12:39:29.228Z,1002.13
2023-07-18T12:40:29.302Z,1002.07
2023-07-18T12:41:29.325Z,1002.07
2023-07-18T12:42:29.228Z,1002.09
2023-07-18T12:43:29.087Z,1002.06
2023-07-18T12:44:30.439Z,1002.08
2023-07-18T12:45:29.054Z,1002.06
2023-07-18T12:46:29.049Z,1002.06
2023-07-18T12:47:29.124Z,1002.08
2023-07-18T12:48:28.987Z,1002.14
2023-07-18T12:50:28.962Z,1002.18
2023-07-18T12:51:28.959Z,1002.13
2023-07-18T12:52:29.091Z,1002.08
2023-07-18T12:53:28.970Z,1002.07
2023-07-18T12:54:28.942Z,1002.03
2023-07-18T12:55:28.904Z,1002.06
2023-07-18T12:56:28.885Z,1002.01
2023-07-18T12:57:31.262Z,1001.98
2023-07-18T12:58:28.875Z,1001.98
2023-07-18T12:59:28.869Z,1001.94
2023-07-18T13:00:28.842Z,1001.89
2023-07-18T13:01:28.874Z,1001.87
2023-07-18T13:02:28.889Z,1001.82
2023-07-18T13:03:32.520Z,1001.79
2023-07-18T13:04:29.784Z,1001.74
2023-07-18T13:05:28.790Z,1001.72
2023-07-18T13:06:29.338Z,1001.68
2023-07-18T13:07:28.739Z,1001.68
2023-07-18T13:08:28.746Z,1001.60
2023-07-18T13:09:28.712Z,1001.59
2023-07-18T13:10:28.727Z,1001.62
2023-07-18T13:11:28.684Z,1001.56
2023-07-18T13:12:28.704Z,1001.55
2023-07-18T13:13:28.693Z,1001.54
2023-07-18T13:14:28.669Z,1001.54
2023-07-18T13:15:28.652Z,1001.52
2023-07-18T13:16:28.664Z,1001.54
2023-07-18T13:17:28.664Z,1001.55
2023-07-18T13:18:28.597Z,1001.56
2023-07-18T13:19:28.591Z,1001.59
2023-07-18T13:20:28.575Z,1001.56
2023-07-18T13:21:28.569Z,1001.59
2023-07-18T13:22:28.605Z,1001.57
2023-07-18T13:23:28.540Z,1001.54
2023-07-18T13:24:28.521Z,1001.52
2023-07-18T13:25:28.524Z,1001.54